Time;durP1;ratioP1;P1;durP2;ratioP2;P2;SDS_P1;SDS_P2;PMS_P1;PMS_P2;Temp;Humidity;BMP_temperature;BMP_pressure;BME280_temperature;BME280_humidity;BME280_pressure;Samples;Min_cycle;Max_cycle;Signal;HPM_P1;HPM_P2
2022/11/15 00:01:08;;;;;;;65.73;9.17;;;11.70;1.00;;;;;;5112924;28;20492;-76
2022/11/15 00:03:35;;;;;;;65.10;9.20;;;11.50;1.00;;;;;;5113029;28;20968;-76
2022/11/15 00:06:04;;;;;;;63.20;8.80;;;11.50;1.00;;;;;;5113108;28;20811;-76
2022/11/15 00:08:33;;;;;;;64.70;9.10;;;11.40;1.00;;;;;;5112403;28;20472;-76
2022/11/15 00:11:02;;;;;;;65.23;8.40;;;11.50;1.00;;;;;;5113112;28;20536;-76
2022/11/15 00:13:29;;;;;;;64.40;9.53;;;11.50;1.00;;;;;;5112999;28;20449;-76
2022/11/15 00:15:58;;;;;;;67.20;9.80;;;11.60;1.00;;;;;;5112764;28;20465;-76
2022/11/15 00:18:25;;;;;;;69.53;9.30;;;11.80;1.00;;;;;;5112652;28;20515;-76
2022/11/15 00:20:52;;;;;;;79.27;13.90;;;11.90;1.00;;;;;;5112059;28;20486;-76
2022/11/15 00:23:19;;;;;;;81.83;15.90;;;12.00;1.00;;;;;;5112613;28;20953;-76
2022/11/15 00:25:47;;;;;;;73.13;11.70;;;12.10;1.00;;;;;;5112798;28;20456;-76
2022/11/15 00:28:14;;;;;;;69.20;9.17;;;12.00;1.00;;;;;;5112608;28;20484;-76
2022/11/15 00:30:41;;;;;;;66.80;8.87;;;12.10;1.00;;;;;;5112319;28;20444;-76
2022/11/15 00:33:08;;;;;;;65.50;9.00;;;12.10;1.00;;;;;;5113014;28;20453;-76
2022/11/15 00:35:35;;;;;;;70.60;11.10;;;12.00;1.00;;;;;;5112454;28;20838;-76
2022/11/15 00:38:03;;;;;;;65.90;9.80;;;12.00;1.00;;;;;;5112526;28;20468;-76
2022/11/15 00:40:30;;;;;;;65.07;9.37;;;12.10;1.00;;;;;;5111667;28;20448;-76
2022/11/15 00:42:58;;;;;;;63.97;9.07;;;12.10;1.00;;;;;;5112542;28;20832;-76
2022/11/15 00:45:26;;;;;;;65.27;9.97;;;12.10;1.00;;;;;;5112327;28;20835;-76
2022/11/15 00:47:53;;;;;;;67.43;10.93;;;12.20;1.00;;;;;;5112190;28;20499;-76
2022/11/15 00:50:20;;;;;;;65.67;9.93;;;12.20;1.00;;;;;;5111671;28;20445;-76
2022/11/15 00:52:47;;;;;;;65.07;8.67;;;12.10;1.00;;;;;;5112328;28;20438;-76
2022/11/15 00:55:16;;;;;;;64.23;8.67;;;12.10;1.00;;;;;;5112009;28;20445;-76
2022/11/15 00:57:43;;;;;;;63.50;8.70;;;12.10;1.00;;;;;;5112119;28;20477;-76
2022/11/15 01:00:12;;;;;;;65.97;8.70;;;12.00;1.00;;;;;;5111456;28;20445;-76
2022/11/15 01:02:39;;;;;;;64.60;8.63;;;12.00;1.00;;;;;;5112014;28;20483;-76
2022/11/15 01:05:06;;;;;;;64.17;8.27;;;12.00;1.00;;;;;;5112338;28;20872;-76
2022/11/15 01:07:33;;;;;;;64.00;8.67;;;12.00;1.00;;;;;;5112211;28;20461;-76
2022/11/15 01:10:00;;;;;;;63.67;8.63;;;11.90;1.00;;;;;;5111522;28;20550;-76
2022/11/15 01:12:27;;;;;;;63.17;8.10;;;11.90;1.00;;;;;;5112220;28;20448;-76
2022/11/15 01:14:53;;;;;;;62.10;7.50;;;11.80;1.00;;;;;;5111965;28;21045;-76
2022/11/15 01:17:22;;;;;;;64.27;8.10;;;11.70;1.00;;;;;;5111855;28;20445;-76
2022/11/15 01:19:49;;;;;;;66.27;8.97;;;11.70;1.00;;;;;;5111454;28;20449;-76
2022/11/15 01:22:16;;;;;;;64.20;7.53;;;11.70;1.00;;;;;;5112075;28;20482;-76
2022/11/15 01:24:42;;;;;;;64.07;8.60;;;11.60;1.00;;;;;;5112039;28;20447;-76
2022/11/15 01:27:10;;;;;;;65.60;8.20;;;11.50;1.00;;;;;;5111964;28;20456;-76
2022/11/15 01:29:36;;;;;;;63.70;8.37;;;11.40;1.00;;;;;;5110999;28;20476;-76
2022/11/15 01:32:03;;;;;;;66.30;8.63;;;11.20;1.00;;;;;;5112165;28;20441;-76
2022/11/15 01:34:32;;;;;;;65.60;8.50;;;11.10;1.00;;;;;;5112046;28;20488;-76
2022/11/15 01:36:59;;;;;;;64.27;8.00;;;11.10;1.00;;;;;;5112005;28;20450;-76
2022/11/15 01:39:26;;;;;;;64.20;8.70;;;11.00;1.00;;;;;;5111044;28;20470;-76
2022/11/15 01:41:53;;;;;;;64.03;8.50;;;10.90;1.00;;;;;;5111772;28;20477;-76
2022/11/15 01:44:42;;;;;;;64.27;8.10;;;10.90;1.00;;;;;;5111664;28;20963;-76
2022/11/15 01:47:12;;;;;;;65.10;8.63;;;11.00;1.00;;;;;;5112014;28;20825;-76
2022/11/15 01:49:45;;;;;;;64.87;8.33;;;10.90;1.00;;;;;;5111172;28;20456;-76
2022/11/15 01:52:15;;;;;;;66.87;9.20;;;10.90;1.00;;;;;;5111846;28;20464;-76
2022/11/15 01:54:43;;;;;;;64.40;8.70;;;10.90;1.00;;;;;;5111673;28;20451;-76
2022/11/15 01:57:12;;;;;;;63.80;9.00;;;10.80;1.00;;;;;;5111802;28;20456;-76
2022/11/15 01:59:43;;;;;;;64.63;9.50;;;10.70;1.00;;;;;;5110965;28;20541;-76
2022/11/15 02:02:10;;;;;;;62.50;8.70;;;10.70;1.00;;;;;;5111735;28;20848;-76
2022/11/15 02:04:41;;;;;;;66.70;9.13;;;10.70;1.00;;;;;;5112000;28;20869;-76
2022/11/15 02:07:10;;;;;;;66.37;8.50;;;10.60;1.00;;;;;;5114839;28;20457;-76
2022/11/15 02:09:39;;;;;;;65.50;9.47;;;10.60;1.00;;;;;;5114589;28;20469;-76
2022/11/15 02:12:08;;;;;;;68.90;9.63;;;10.50;1.00;;;;;;5115179;28;20450;-76
2022/11/15 02:14:36;;;;;;;64.77;9.07;;;10.40;1.00;;;;;;5115274;28;20536;-76
2022/11/15 02:17:18;;;;;;;63.07;8.33;;;10.30;1.00;;;;;;5111634;28;20548;-76
2022/11/15 02:20:16;;;;;;;64.07;9.00;;;10.40;1.00;;;;;;5114632;28;20544;-76
2022/11/15 02:22:58;;;;;;;65.10;8.30;;;10.30;1.00;;;;;;5114693;28;20480;-76
2022/11/15 02:25:40;;;;;;;66.33;8.80;;;10.40;1.00;;;;;;5115148;28;20455;-76
2022/11/15 02:28:43;;;;;;;63.33;8.50;;;10.30;1.00;;;;;;5114954;28;20472;-76
2022/11/15 02:31:18;;;;;;;64.07;9.30;;;10.40;1.00;;;;;;5114414;28;21071;-76
2022/11/15 02:33:54;;;;;;;64.53;9.70;;;10.40;1.00;;;;;;5114583;28;20450;-76
2022/11/15 02:36:31;;;;;;;65.13;9.37;;;10.50;1.00;;;;;;5114962;28;20455;-76
2022/11/15 02:39:03;;;;;;;65.93;10.00;;;10.50;1.00;;;;;;5113866;28;20475;-76
2022/11/15 02:41:36;;;;;;;63.67;9.00;;;10.50;1.00;;;;;;5114634;28;20491;-76
2022/11/15 02:44:07;;;;;;;63.93;9.60;;;10.50;1.00;;;;;;5114882;28;20434;-76
2022/11/15 02:49:25;;;;;;;65.17;9.00;;;10.40;1.00;;;;;;5113884;28;20445;-76
2022/11/15 02:51:55;;;;;;;64.87;9.57;;;10.40;1.00;;;;;;5114741;28;20445;-76
2022/11/15 02:54:24;;;;;;;64.17;9.20;;;10.30;1.00;;;;;;5114380;28;20450;-76
2022/11/15 02:56:54;;;;;;;62.93;8.37;;;10.40;1.00;;;;;;5114516;28;20453;-76
2022/11/15 03:00:02;;;;;;;65.53;9.17;;;10.40;1.00;;;;;;5113497;28;20855;-76
2022/11/15 03:02:56;;;;;;;63.40;8.80;;;10.40;1.00;;;;;;5114016;28;21111;-76
2022/11/15 03:05:31;;;;;;;66.00;9.70;;;10.40;1.00;;;;;;5114188;28;20906;-76
2022/11/15 03:08:06;;;;;;;66.23;8.97;;;10.30;1.00;;;;;;5114150;28;20491;-76
2022/11/15 03:10:43;;;;;;;65.93;9.20;;;10.30;1.00;;;;;;5113448;28;20447;-75
2022/11/15 03:13:20;;;;;;;64.67;8.70;;;10.30;1.00;;;;;;5113946;28;20444;-76
2022/11/15 03:15:54;;;;;;;65.90;9.80;;;10.30;1.00;;;;;;5113905;28;20449;-76
2022/11/15 03:18:29;;;;;;;66.10;9.60;;;10.40;1.00;;;;;;5113961;28;20480;-76
2022/11/15 03:20:56;;;;;;;68.00;9.13;;;10.40;1.00;;;;;;5113847;28;20453;-76
2022/11/15 03:23:23;;;;;;;65.30;9.20;;;10.40;1.00;;;;;;5113481;28;20489;-76
2022/11/15 03:25:52;;;;;;;68.20;9.43;;;10.30;1.00;;;;;;5113808;28;20956;-76
2022/11/15 03:28:24;;;;;;;69.23;9.43;;;10.30;1.00;;;;;;5113805;28;20491;-76
2022/11/15 03:30:52;;;;;;;66.80;8.70;;;10.20;1.00;;;;;;5113338;28;20467;-76
2022/11/15 03:33:22;;;;;;;64.47;8.97;;;10.20;1.00;;;;;;5113678;28;20520;-76
2022/11/15 03:35:49;;;;;;;66.53;9.37;;;10.20;1.00;;;;;;5113673;28;20449;-76
2022/11/15 03:38:22;;;;;;;64.87;9.53;;;10.10;1.00;;;;;;5113403;28;20505;-76
2022/11/15 03:40:59;;;;;;;71.27;9.30;;;10.10;1.00;;;;;;5113118;28;20441;-76
2022/11/15 03:43:34;;;;;;;63.27;8.20;;;10.10;1.00;;;;;;5113502;28;20591;-76
2022/11/15 03:46:05;;;;;;;63.10;8.60;;;10.10;1.00;;;;;;5113491;28;20918;-76
2022/11/15 03:48:38;;;;;;;64.07;7.80;;;10.10;1.00;;;;;;5112617;28;20479;-76
2022/11/15 03:51:05;;;;;;;63.73;8.57;;;10.00;1.00;;;;;;5113568;28;20454;-76
2022/11/15 03:53:32;;;;;;;63.40;8.73;;;10.10;1.00;;;;;;5113398;28;20796;-76
2022/11/15 03:55:59;;;;;;;67.30;9.47;;;10.00;1.00;;;;;;5113281;28;20448;-76
2022/11/15 03:58:26;;;;;;;67.23;9.40;;;10.00;1.00;;;;;;5112872;28;20488;-76
2022/11/15 04:00:53;;;;;;;64.13;9.10;;;10.00;1.00;;;;;;5112563;28;20536;-76
2022/11/15 04:03:19;;;;;;;70.53;9.77;;;10.10;1.00;;;;;;5113019;28;20491;-76
2022/11/15 04:05:48;;;;;;;67.67;9.73;;;10.10;1.00;;;;;;5113095;28;21102;-76
2022/11/15 04:08:14;;;;;;;63.40;8.93;;;10.10;1.00;;;;;;5112971;28;21107;-76
2022/11/15 04:10:41;;;;;;;65.20;9.77;;;10.10;1.00;;;;;;5112245;28;20454;-76
2022/11/15 04:13:08;;;;;;;64.43;9.00;;;10.00;1.00;;;;;;5112882;28;20950;-76
2022/11/15 04:15:35;;;;;;;67.40;9.90;;;10.00;1.00;;;;;;5112845;28;20445;-76
2022/11/15 04:18:02;;;;;;;65.20;9.70;;;9.90;1.00;;;;;;5112711;28;20473;-76
2022/11/15 04:26:05;;;;;;;68.00;9.83;;;9.60;1.00;;;;;;5112652;28;20428;-76
2022/11/15 04:28:31;;;;;;;64.43;8.87;;;9.40;1.00;;;;;;5111836;28;20480;-76
2022/11/15 04:30:58;;;;;;;65.63;9.03;;;9.60;1.00;;;;;;5112344;28;20445;-76
2022/11/15 04:33:25;;;;;;;64.20;8.47;;;9.70;1.00;;;;;;5112376;28;20974;-76
2022/11/15 04:38:35;;;;;;;65.60;9.60;;;9.70;1.00;;;;;;5110917;28;20460;-76
2022/11/15 04:41:03;;;;;;;65.10;8.83;;;9.80;1.00;;;;;;5112579;28;20440;-76
2022/11/15 04:43:29;;;;;;;66.87;8.80;;;9.80;1.00;;;;;;5112495;28;20845;-76
2022/11/15 04:45:56;;;;;;;63.17;7.87;;;9.80;1.00;;;;;;5112309;28;20452;-76
2022/11/15 04:48:23;;;;;;;63.30;8.93;;;9.80;1.00;;;;;;5112160;28;20466;-76
2022/11/15 04:50:50;;;;;;;64.07;8.77;;;9.80;1.00;;;;;;5111408;28;20473;-76
2022/11/15 04:53:17;;;;;;;65.90;8.80;;;9.80;1.00;;;;;;5112272;28;20449;-76
2022/11/15 04:55:47;;;;;;;62.67;7.60;;;9.80;1.00;;;;;;5112374;28;20452;-76
2022/11/15 04:58:13;;;;;;;63.27;7.87;;;9.70;1.00;;;;;;5111895;28;20490;-76
2022/11/15 05:00:40;;;;;;;64.63;9.07;;;9.60;1.00;;;;;;5111667;28;20454;-76
2022/11/15 05:05:51;;;;;;;66.10;8.43;;;9.30;1.00;;;;;;5112318;28;20506;-76
2022/11/15 05:08:18;;;;;;;62.80;8.03;;;9.40;1.00;;;;;;5112058;28;20541;-76
2022/11/15 05:10:46;;;;;;;62.47;7.00;;;9.40;1.00;;;;;;5111770;28;20453;-76
2022/11/15 05:13:13;;;;;;;69.27;8.57;;;9.40;1.00;;;;;;5112080;28;20442;-76
2022/11/15 05:15:40;;;;;;;64.00;8.07;;;9.30;1.00;;;;;;5112066;28;20956;-76
2022/11/15 05:18:07;;;;;;;65.95;8.38;;;9.40;1.00;;;;;;5111840;28;20473;-76
2022/11/15 05:20:34;;;;;;;64.37;8.10;;;9.50;1.00;;;;;;5111596;28;20218;-76
2022/11/15 05:23:00;;;;;;;65.10;7.90;;;9.60;1.00;;;;;;5112098;28;20496;-76
2022/11/15 05:25:27;;;;;;;65.10;8.00;;;9.60;1.00;;;;;;5112035;28;20448;-76
2022/11/15 05:27:56;;;;;;;65.00;7.97;;;9.70;1.00;;;;;;5111896;28;20841;-76
2022/11/15 05:30:23;;;;;;;65.53;8.67;;;9.50;1.00;;;;;;5111317;28;20473;-76
2022/11/15 05:32:50;;;;;;;62.77;8.30;;;9.30;1.00;;;;;;5112169;28;20448;-76
2022/11/15 05:35:33;;;;;;;63.70;8.33;;;9.30;1.00;;;;;;5112092;28;20933;-76
2022/11/15 05:38:00;;;;;;;63.80;9.20;;;9.20;1.00;;;;;;5111899;28;20996;-76
2022/11/15 05:40:28;;;;;;;68.40;9.03;;;8.80;1.00;;;;;;5112097;28;20464;-76
2022/11/15 05:42:57;;;;;;;68.38;9.35;;;9.00;1.00;;;;;;5115660;28;20487;-76
2022/11/15 05:45:24;;;;;;;65.43;8.80;;;8.70;1.00;;;;;;5115976;28;20576;-76
2022/11/15 05:47:52;;;;;;;64.90;8.93;;;9.00;1.00;;;;;;5115728;28;21016;-76
2022/11/15 05:50:20;;;;;;;67.77;9.07;;;9.10;1.00;;;;;;5114934;28;20967;-76
2022/11/15 05:52:48;;;;;;;67.90;9.17;;;9.30;1.00;;;;;;5115640;28;20448;-76
2022/11/15 05:55:15;;;;;;;65.57;8.90;;;9.20;1.00;;;;;;5115569;28;20460;-75
2022/11/15 05:57:42;;;;;;;64.97;9.27;;;8.80;1.00;;;;;;5115231;28;20851;-76
2022/11/15 06:00:12;;;;;;;64.50;8.70;;;8.90;1.00;;;;;;5115117;28;20445;-76
2022/11/15 06:02:38;;;;;;;64.93;9.47;;;9.10;1.00;;;;;;5115759;28;20485;-76
2022/11/15 06:05:06;;;;;;;64.17;8.50;;;9.20;1.00;;;;;;5115570;28;20648;-75
2022/11/15 06:07:32;;;;;;;68.97;10.57;;;9.40;1.00;;;;;;5115342;28;20465;-76
2022/11/15 06:09:59;;;;;;;65.30;10.10;;;9.40;1.00;;;;;;5114728;28;20450;-76
2022/11/15 06:12:26;;;;;;;68.00;8.70;;;9.40;1.00;;;;;;5115522;28;20452;-76
2022/11/15 06:14:53;;;;;;;65.13;9.20;;;9.40;1.00;;;;;;5115368;28;20463;-76
2022/11/15 06:17:21;;;;;;;69.90;10.17;;;9.50;1.00;;;;;;5115055;28;20460;-76
2022/11/15 06:19:48;;;;;;;66.10;10.30;;;9.50;1.00;;;;;;5114813;28;20543;-76
2022/11/15 06:22:14;;;;;;;64.30;8.50;;;9.50;1.00;;;;;;5114913;28;20496;-76
2022/11/15 06:24:41;;;;;;;67.30;8.53;;;9.50;1.00;;;;;;5114954;28;20450;-76
2022/11/15 06:27:08;;;;;;;64.33;8.47;;;9.50;1.00;;;;;;5115285;28;20449;-76
2022/11/15 06:29:35;;;;;;;64.40;9.43;;;9.50;1.00;;;;;;5114428;28;20475;-76
2022/11/15 06:32:01;;;;;;;64.27;8.60;;;9.50;1.00;;;;;;5114853;28;20455;-76
2022/11/15 06:34:30;;;;;;;65.47;8.83;;;9.60;1.00;;;;;;5114638;28;20831;-76
2022/11/15 06:36:56;;;;;;;63.80;8.43;;;9.60;1.00;;;;;;5114623;28;20463;-76
2022/11/15 06:39:23;;;;;;;63.93;8.20;;;9.60;1.00;;;;;;5113963;28;21007;-76
2022/11/15 06:41:50;;;;;;;70.03;8.83;;;9.60;1.00;;;;;;5114731;28;20828;-76
2022/11/15 06:44:17;;;;;;;66.20;10.30;;;9.60;1.00;;;;;;5114784;28;20477;-76
2022/11/15 06:46:43;;;;;;;67.70;9.87;;;9.60;1.00;;;;;;5114958;28;20856;-76
2022/11/15 06:49:10;;;;;;;65.37;9.80;;;9.60;1.00;;;;;;5113971;28;20473;-76
2022/11/15 06:51:38;;;;;;;66.70;9.80;;;9.60;1.00;;;;;;5114099;28;20448;-76
2022/11/15 06:54:05;;;;;;;67.20;9.90;;;9.60;1.00;;;;;;5114369;28;20449;-76
2022/11/15 06:56:34;;;;;;;67.43;9.97;;;9.70;1.00;;;;;;5114640;28;20810;-76
2022/11/15 06:59:01;;;;;;;68.00;10.80;;;9.70;1.00;;;;;;5113818;28;20993;-76
2022/11/15 07:01:27;;;;;;;69.10;12.40;;;9.70;1.00;;;;;;5114437;28;20448;-76
2022/11/15 07:03:54;;;;;;;66.50;10.17;;;9.60;1.00;;;;;;5114164;28;20491;-76
2022/11/15 07:06:22;;;;;;;65.50;10.47;;;9.60;1.00;;;;;;5113744;28;20547;-76
2022/11/15 07:08:50;;;;;;;64.00;9.63;;;9.70;1.00;;;;;;5113711;28;20475;-76
2022/11/15 07:11:16;;;;;;;65.57;10.10;;;9.70;1.00;;;;;;5114151;28;20792;-76
2022/11/15 07:13:43;;;;;;;65.70;9.60;;;9.70;1.00;;;;;;5114109;28;20449;-76
2022/11/15 07:16:11;;;;;;;68.10;10.50;;;9.70;1.00;;;;;;5113934;28;20463;-76
2022/11/15 07:18:39;;;;;;;67.50;9.40;;;9.70;1.00;;;;;;5113259;28;20494;-76
2022/11/15 07:21:08;;;;;;;64.37;9.27;;;9.90;1.00;;;;;;5113788;28;20805;-76
2022/11/15 07:23:37;;;;;;;64.60;8.73;;;10.00;1.00;;;;;;5113972;28;20481;-76
2022/11/15 07:26:06;;;;;;;66.70;9.20;;;10.20;1.00;;;;;;5113910;28;20456;-76
2022/11/15 07:28:33;;;;;;;66.47;9.27;;;10.30;1.00;;;;;;5113397;28;20462;-76
2022/11/15 07:31:03;;;;;;;67.03;8.70;;;10.50;1.00;;;;;;5113799;28;20458;-76
2022/11/15 07:33:30;;;;;;;66.00;8.77;;;10.60;1.00;;;;;;5113553;28;20445;-76
2022/11/15 07:36:01;;;;;;;65.90;8.53;;;10.70;1.00;;;;;;5113764;28;20452;-76
2022/11/15 07:38:28;;;;;;;67.00;8.70;;;10.80;1.00;;;;;;5113525;28;20473;-76
2022/11/15 07:40:58;;;;;;;65.70;8.20;;;11.00;1.00;;;;;;5113256;28;20449;-76
2022/11/15 07:43:27;;;;;;;63.30;7.57;;;11.20;1.00;;;;;;5113424;28;20477;-76
2022/11/15 07:45:54;;;;;;;65.50;8.17;;;11.40;1.00;;;;;;5113430;28;20837;-76
2022/11/15 07:48:21;;;;;;;64.10;7.83;;;11.60;1.00;;;;;;5113509;28;20470;-76
2022/11/15 07:50:48;;;;;;;65.83;8.60;;;11.90;1.00;;;;;;5112923;28;20519;-76
2022/11/15 07:53:15;;;;;;;65.90;8.00;;;12.10;1.00;;;;;;5113337;28;20833;-76
2022/11/15 07:55:42;;;;;;;64.80;8.93;;;12.30;1.00;;;;;;5113262;28;20453;-76
2022/11/15 07:58:11;;;;;;;64.27;8.47;;;12.60;1.00;;;;;;5113174;28;20487;-74
2022/11/15 08:00:40;;;;;;;65.43;9.00;;;12.90;1.00;;;;;;5112457;28;20458;-73
2022/11/15 08:03:08;;;;;;;65.77;8.63;;;13.00;1.00;;;;;;5112434;28;20485;-73
2022/11/15 08:05:36;;;;;;;66.97;8.20;;;13.10;1.00;;;;;;5112897;28;20450;-76
2022/11/15 08:08:04;;;;;;;64.40;8.33;;;13.40;1.00;;;;;;5112931;28;20810;-76
2022/11/15 08:10:31;;;;;;;63.90;7.40;;;13.50;1.00;;;;;;5112455;28;20441;-76
2022/11/15 08:12:59;;;;;;;63.10;7.17;;;13.70;1.00;;;;;;5112757;28;20452;-76
2022/11/15 08:15:26;;;;;;;63.07;7.10;;;13.90;1.00;;;;;;5113031;28;20472;-76
2022/11/15 08:17:56;;;;;;;64.20;7.23;;;14.00;1.00;;;;;;5112938;28;20562;-76
2022/11/15 08:20:23;;;;;;;64.47;8.03;;;14.30;1.00;;;;;;5110759;28;20463;-76
2022/11/15 08:22:50;;;;;;;65.80;7.77;;;14.40;1.00;;;;;;5112431;28;20477;-76
2022/11/15 08:25:17;;;;;;;63.67;7.73;;;14.70;1.00;;;;;;5112699;28;20449;-76
2022/11/15 08:27:44;;;;;;;63.40;7.23;;;14.80;1.00;;;;;;5112527;28;20845;-76
2022/11/15 08:30:12;;;;;;;65.90;8.30;;;14.80;1.00;;;;;;5111884;28;20460;-76
2022/11/15 08:32:39;;;;;;;64.07;7.60;;;15.00;1.00;;;;;;5112758;28;20528;-76
2022/11/15 08:35:08;;;;;;;65.87;7.10;;;15.20;1.00;;;;;;5112496;28;20464;-76
2022/11/15 08:37:35;;;;;;;63.27;7.20;;;15.30;1.00;;;;;;5112403;28;21008;-76
2022/11/15 08:40:02;;;;;;;64.10;7.00;;;15.40;1.00;;;;;;5111621;28;20446;-76
2022/11/15 08:42:29;;;;;;;65.07;8.40;;;15.50;1.00;;;;;;5112331;28;20464;-76
2022/11/15 08:44:56;;;;;;;64.87;6.93;;;15.60;1.00;;;;;;5112609;28;20861;-76
2022/11/15 08:47:23;;;;;;;63.30;7.20;;;15.60;1.00;;;;;;5112579;28;20544;-76
2022/11/15 08:49:50;;;;;;;62.90;7.40;;;15.60;1.00;;;;;;5111702;28;20454;-76
2022/11/15 08:52:19;;;;;;;61.77;7.30;;;15.70;1.00;;;;;;5112365;28;20451;-76
2022/11/15 08:54:45;;;;;;;67.67;7.63;;;15.70;1.00;;;;;;5112232;28;20445;-76
2022/11/15 08:57:12;;;;;;;73.40;7.67;;;15.70;1.00;;;;;;5112286;28;20445;-76
2022/11/15 08:59:39;;;;;;;70.60;7.70;;;15.60;1.00;;;;;;5111665;28;20456;-76
2022/11/15 09:02:07;;;;;;;63.37;7.10;;;15.20;1.00;;;;;;5112354;28;20480;-76
2022/11/15 09:04:33;;;;;;;65.37;7.20;;;15.10;1.00;;;;;;5112126;28;20496;-76
2022/11/15 09:07:00;;;;;;;63.10;7.07;;;15.20;1.00;;;;;;5112164;28;20833;-76
2022/11/15 09:09:28;;;;;;;68.50;7.57;;;15.30;1.00;;;;;;5111298;28;20470;-76
2022/11/15 09:11:55;;;;;;;66.57;6.80;;;15.60;1.00;;;;;;5112312;28;20453;-76
2022/11/15 09:14:22;;;;;;;66.43;7.37;;;15.80;1.00;;;;;;5113459;28;20473;-76
2022/11/15 09:16:49;;;;;;;62.70;6.50;;;15.60;99.90;;;;;;5116932;28;20537;-76
2022/11/15 09:19:15;;;;;;;62.57;6.60;;;15.60;99.90;;;;;;5116119;28;20465;-76
2022/11/15 09:21:42;;;;;;;63.27;6.87;;;15.60;99.90;;;;;;5117050;28;20812;-76
2022/11/15 09:24:09;;;;;;;62.37;6.90;;;16.20;99.90;;;;;;5117360;28;20484;-76
2022/11/15 09:26:37;;;;;;;62.73;6.40;;;16.20;99.90;;;;;;5117132;28;20943;-76
2022/11/15 09:29:04;;;;;;;62.33;5.57;;;15.80;99.90;;;;;;5116147;28;20469;-76
2022/11/15 09:31:31;;;;;;;62.00;6.13;;;16.30;99.90;;;;;;5116880;28;20452;-76
2022/11/15 09:33:58;;;;;;;65.50;6.83;;;16.90;99.90;;;;;;5117093;28;20530;-76
2022/11/15 09:36:25;;;;;;;62.60;6.77;;;17.60;99.90;;;;;;5117188;28;20449;-76
2022/11/15 09:38:52;;;;;;;62.57;6.57;;;18.30;99.90;;;;;;5116345;28;20461;-74
2022/11/15 09:41:51;;;;;;;60.97;5.87;;;18.50;99.90;;;;;;5116427;28;20450;-74
2022/11/15 09:44:46;;;;;;;64.53;6.97;;;18.50;99.90;;;;;;5116676;28;20564;-74
2022/11/15 09:47:49;;;;;;;64.10;6.17;;;18.70;99.90;;;;;;5113754;28;20458;-74
2022/11/15 09:50:21;;;;;;;62.33;6.20;;;;;;;;;;5106522;28;20456;-75
2022/11/15 09:52:48;;;;;;;61.67;5.80;;;21.20;99.90;;;;;;5115713;28;20456;-75
2022/11/15 09:55:21;;;;;;;61.67;5.70;;;22.00;99.90;;;;;;5115496;28;20437;-75
2022/11/15 09:57:55;;;;;;;61.53;6.03;;;23.40;99.90;;;;;;5115554;28;20534;-75
2022/11/15 10:00:28;;;;;;;60.80;5.23;;;24.30;99.90;;;;;;5114987;28;20449;-75
2022/11/15 10:03:09;;;;;;;60.17;5.60;;;25.00;99.90;;;;;;5115498;28;20449;-75
2022/11/15 10:05:40;;;;;;;70.53;6.33;;;26.30;99.90;;;;;;5115610;28;20426;-75
2022/11/15 10:08:25;;;;;;;60.77;4.90;;;27.80;99.90;;;;;;5115433;28;20466;-75
2022/11/15 10:10:56;;;;;;;60.00;4.67;;;28.40;99.90;;;;;;5114918;28;20449;-75
2022/11/15 10:13:27;;;;;;;60.67;5.17;;;28.20;99.90;;;;;;5115289;28;20448;-75
2022/11/15 10:15:55;;;;;;;61.07;5.00;;;28.70;99.90;;;;;;5115264;28;20949;-75
2022/11/15 10:18:29;;;;;;;61.67;4.60;;;28.90;99.90;;;;;;5115212;28;20467;-75
2022/11/15 10:21:00;;;;;;;60.20;5.40;;;28.40;99.90;;;;;;5115070;28;20537;-75
2022/11/15 10:23:28;;;;;;;62.73;5.27;;;27.10;99.90;;;;;;5115296;28;20487;-75
2022/11/15 10:25:58;;;;;;;61.57;5.13;;;26.00;99.90;;;;;;5114346;28;20449;-75
2022/11/15 10:28:28;;;;;;;62.70;5.27;;;25.10;99.90;;;;;;5115092;28;20461;-75
2022/11/15 10:30:57;;;;;;;60.40;4.83;;;24.50;99.90;;;;;;5114461;28;20956;-75
2022/11/15 10:33:33;;;;;;;60.20;4.70;;;23.80;99.90;;;;;;5114985;28;20457;-75
2022/11/15 10:36:21;;;;;;;60.30;4.87;;;23.40;99.90;;;;;;5114972;28;20460;-76
2022/11/15 10:38:59;;;;;;;61.60;5.60;;;23.10;99.90;;;;;;5113820;28;20837;-75
2022/11/15 10:41:39;;;;;;;60.57;5.20;;;22.70;99.90;;;;;;5114693;28;21021;-75
2022/11/15 10:44:22;;;;;;;60.67;5.23;;;22.60;99.90;;;;;;5114851;28;20482;-76
2022/11/15 10:47:08;;;;;;;61.00;5.30;;;22.40;99.90;;;;;;5114626;28;20458;-76
2022/11/15 10:49:36;;;;;;;60.30;5.17;;;22.30;99.90;;;;;;5113995;28;20478;-76
2022/11/15 10:52:09;;;;;;;61.87;5.20;;;22.10;99.90;;;;;;5114434;28;20449;-76
2022/11/15 10:54:41;;;;;;;62.37;5.73;;;22.00;99.90;;;;;;5114550;28;20437;-76
2022/11/15 10:57:13;;;;;;;59.77;5.00;;;21.80;99.90;;;;;;5114433;28;20468;-76
2022/11/15 10:59:46;;;;;;;60.77;5.17;;;21.50;99.90;;;;;;5113593;28;20450;-76
2022/11/15 11:02:29;;;;;;;62.20;5.70;;;21.40;99.90;;;;;;5114288;28;20972;-76
2022/11/15 11:04:56;;;;;;;61.37;5.20;;;21.30;99.90;;;;;;5114208;28;20492;-76
2022/11/15 11:07:25;;;;;;;60.27;5.10;;;21.30;99.90;;;;;;5114145;28;20951;-76
2022/11/15 11:09:59;;;;;;;62.00;4.93;;;21.30;99.90;;;;;;5113455;28;20456;-77
2022/11/15 11:12:30;;;;;;;64.00;5.57;;;21.10;99.90;;;;;;5114476;28;20468;-77
2022/11/15 11:14:59;;;;;;;60.60;5.30;;;20.70;99.90;;;;;;5114156;28;20471;-75
2022/11/15 11:17:35;;;;;;;61.10;5.73;;;20.20;99.90;;;;;;5114155;28;20441;-75
2022/11/15 11:20:08;;;;;;;64.50;5.97;;;20.20;99.90;;;;;;5113369;28;20449;-75
2022/11/15 11:22:43;;;;;;;61.87;5.10;;;19.90;99.90;;;;;;5113899;28;20548;-75
2022/11/15 11:25:20;;;;;;;61.63;5.00;;;19.80;99.90;;;;;;5114019;28;20480;-75
2022/11/15 11:28:09;;;;;;;60.20;4.80;;;19.70;99.90;;;;;;5113948;28;20469;-75
2022/11/15 11:30:48;;;;;;;61.53;5.50;;;19.70;99.90;;;;;;5113155;28;20949;-75
2022/11/15 11:33:20;;;;;;;60.83;5.60;;;19.70;99.90;;;;;;5113973;28;20464;-75
2022/11/15 11:35:59;;;;;;;62.50;5.20;;;19.70;99.90;;;;;;5114361;28;20440;-77
2022/11/15 11:38:50;;;;;;;61.17;5.23;;;19.60;99.90;;;;;;5112521;28;20491;-76
2022/11/15 11:41:28;;;;;;;62.60;5.10;;;19.80;99.90;;;;;;5113536;28;20446;-76
2022/11/15 11:44:06;;;;;;;61.40;5.40;;;20.00;99.90;;;;;;5113773;28;20461;-75
2022/11/15 11:46:48;;;;;;;61.37;5.37;;;20.20;99.90;;;;;;5113605;28;20452;-75
2022/11/15 11:49:20;;;;;;;62.83;5.57;;;20.10;99.90;;;;;;5112660;28;20993;-75
2022/11/15 11:51:51;;;;;;;60.07;4.60;;;20.40;99.90;;;;;;5113280;28;20477;-75
2022/11/15 11:54:23;;;;;;;61.83;6.03;;;20.30;99.90;;;;;;5113289;28;20460;-75
2022/11/15 11:56:52;;;;;;;60.80;5.43;;;20.20;99.90;;;;;;5113253;28;20451;-75
2022/11/15 11:59:26;;;;;;;61.30;5.03;;;20.30;99.90;;;;;;5112285;28;20481;-75
2022/11/15 12:01:55;;;;;;;68.03;5.50;;;20.00;99.90;;;;;;5113759;28;20443;-75
2022/11/15 12:04:30;;;;;;;72.40;5.73;;;19.80;99.90;;;;;;5112978;28;20481;-76
2022/11/15 12:07:00;;;;;;;66.83;5.10;;;19.80;99.90;;;;;;5113247;28;20445;-75
2022/11/15 12:09:33;;;;;;;67.57;6.10;;;19.80;99.90;;;;;;5112203;28;20469;-75
2022/11/15 12:12:07;;;;;;;62.00;4.70;;;19.90;99.90;;;;;;5112989;28;20449;-75
2022/11/15 12:14:39;;;;;;;61.30;4.40;;;19.70;99.90;;;;;;5112739;28;20449;-76
2022/11/15 12:17:10;;;;;;;61.50;4.90;;;19.50;99.90;;;;;;5113089;28;20827;-77
2022/11/15 12:19:38;;;;;;;59.57;3.80;;;19.80;99.90;;;;;;5112177;28;20480;-76
2022/11/15 12:22:11;;;;;;;62.50;4.90;;;20.30;99.90;;;;;;5112510;28;20942;-76
2022/11/15 12:24:42;;;;;;;66.53;4.43;;;20.70;99.90;;;;;;5112744;28;20487;-76
2022/11/15 12:27:34;;;;;;;60.07;4.27;;;20.80;99.90;;;;;;5112756;28;20452;-76
2022/11/15 12:30:04;;;;;;;60.77;4.40;;;20.80;99.90;;;;;;5113012;28;20454;-76
2022/11/15 12:32:36;;;;;;;59.70;4.03;;;20.90;99.90;;;;;;5112799;28;20449;-76
2022/11/15 12:35:06;;;;;;;59.13;3.70;;;20.30;99.90;;;;;;5112755;28;20452;-76
2022/11/15 12:37:51;;;;;;;59.97;4.30;;;19.90;99.90;;;;;;5112209;28;20449;-76
2022/11/15 12:40:35;;;;;;;60.40;3.90;;;19.60;99.90;;;;;;5111824;28;20449;-76
2022/11/15 12:43:05;;;;;;;61.40;4.37;;;19.70;99.90;;;;;;5112025;28;20456;-76
2022/11/15 12:45:34;;;;;;;63.00;4.30;;;19.90;99.90;;;;;;5111588;28;20487;-76
2022/11/15 12:48:40;;;;;;;59.87;4.10;;;19.70;99.90;;;;;;5112183;28;20469;-76
2022/11/15 12:51:08;;;;;;;62.23;5.00;;;19.60;99.90;;;;;;5106659;28;20453;-76
2022/11/15 12:53:35;;;;;;;59.83;4.10;;;19.40;99.90;;;;;;5112061;28;20454;-76
2022/11/15 12:56:26;;;;;;;61.67;4.90;;;19.30;99.90;;;;;;5112353;28;20844;-76
2022/11/15 12:58:56;;;;;;;61.47;4.53;;;19.30;99.90;;;;;;5085668;28;20508;-76
2022/11/15 13:01:58;;;;;;;60.70;5.00;;;19.30;99.90;;;;;;5112655;28;20464;-76
2022/11/15 13:04:27;;;;;;;60.43;4.73;;;19.30;99.90;;;;;;5112118;28;20587;-76
2022/11/15 13:06:58;;;;;;;64.07;5.27;;;19.30;99.90;;;;;;5112130;28;20821;-76
2022/11/15 13:10:04;;;;;;;62.30;5.10;;;19.40;99.90;;;;;;5105693;28;20466;-76
2022/11/15 13:12:56;;;;;;;62.60;5.10;;;19.00;99.90;;;;;;5110275;28;20456;-76
2022/11/15 13:15:55;;;;;;;62.00;4.70;;;18.80;99.90;;;;;;5111912;28;20440;-76
2022/11/15 13:18:35;;;;;;;64.10;5.27;;;18.80;99.90;;;;;;5112065;28;20469;-76